This is the latest recevied weather packets stored in our database for station/object EB1HRW. If no packets are shown the sender has not sent any weather packets the latest 10 day(s).
| Time | Temp. | Humidity | Pressure | Rain* | Wind** | Luminosity | Snow |
|---|---|---|---|---|---|---|---|
| 1778024338 | 6.67° C | 85% | 1014.5 hPa | 0 mm | - | - | - |
| 1778023439 | 7.22° C | 85% | 1014.4 hPa | 0 mm | - | - | - |
| 1778022540 | 7.22° C | 85% | 1014.4 hPa | 0 mm | - | - | - |
| 1778021637 | 7.78° C | 85% | 1014.5 hPa | 0 mm | - | - | - |
| 1778020738 | 7.22° C | 84% | 1014.5 hPa | 0 mm | - | - | - |
| 1778019839 | 7.78° C | 84% | 1014.6 hPa | 0 mm | - | - | - |
| 1778018937 | 8.33° C | 84% | 1014.6 hPa | 0 mm | - | - | - |
| 1778018038 | 8.33° C | 84% | 1014.6 hPa | 0 mm | - | - | - |
| 1778017137 | 8.33° C | 84% | 1014.5 hPa | 0 mm | - | - | - |
| 1778016239 | 8.89° C | 80% | 1014.5 hPa | 0 mm | - | - | - |
| 1778015337 | 8.89° C | 81% | 1014.5 hPa | 0 mm | - | - | - |
| 1778014438 | 8.89° C | 81% | 1014.5 hPa | 0 mm | - | - | - |
| 1778013539 | 8.89° C | 80% | 1014.3 hPa | 0 mm | - | - | - |
| 1778012638 | 9.44° C | 79% | 1014.2 hPa | 0 mm | - | - | - |
| 1778011738 | 10° C | 76% | 1013.9 hPa | 0 mm | - | - | - |
| 1778010837 | 10° C | 76% | 1013.8 hPa | 0 mm | - | - | - |
| 1778009040 | 10° C | 74% | 1013.3 hPa | 0 mm | - | - | - |
| 1778008139 | 10° C | 78% | 1013.4 hPa | 0 mm | - | - | - |
| 1778007238 | 10° C | 78% | 1013.4 hPa | 0 mm | - | - | - |
| 1778003637 | 13.33° C | 58% | 1012.9 hPa | 0 mm | - | - | - |
| 1778002738 | 14.44° C | 56% | 1012.5 hPa | 0 mm | - | - | - |
| 1778000040 | 15° C | 49% | 1012 hPa | 0 mm | - | - | - |
| 1777999138 | 15.56° C | 48% | 1012 hPa | 0 mm | - | - | - |
| 1777998238 | 16.11° C | 46% | 1012.1 hPa | 0 mm | - | - | - |
| 1777997337 | 15.56° C | 46% | 1012 hPa | 0 mm | - | - | - |
* Rain latest hour (hover to see other rain measurements)
** Current wind speed in m/s (hover to see current wind gust speed)